createdAt,value
2018-11-28T00:03:07.587Z,100521.64
2018-11-28T00:06:10.881Z,100522.69
2018-11-28T00:09:14.218Z,100517.33
2018-11-28T00:12:17.546Z,100521.67
2018-11-28T00:15:20.951Z,100516.71
2018-11-28T00:18:24.305Z,100514.64
2018-11-28T00:21:27.616Z,100505.21
2018-11-28T00:24:30.944Z,100506.94
2018-11-28T00:27:34.237Z,100506.94
2018-11-28T00:30:37.540Z,100514.87
2018-11-28T00:33:40.809Z,100518.44
2018-11-28T00:36:44.110Z,100516.67
2018-11-28T00:39:47.401Z,100515.70
2018-11-28T00:42:57.612Z,100520.95
2018-11-28T00:46:00.918Z,100513.08
2018-11-28T00:49:05.276Z,100516.97
2018-11-28T00:52:08.641Z,100519.19
2018-11-28T00:55:16.335Z,100530.59
2018-11-28T00:58:19.622Z,100516.84
2018-11-28T01:01:22.908Z,100517.26
2018-11-28T01:04:26.223Z,100513.09
2018-11-28T01:07:29.517Z,100508.89
2018-11-28T01:10:32.838Z,100500.28
2018-11-28T01:13:36.146Z,100516.58
2018-11-28T01:16:39.461Z,100515.49
2018-11-28T01:19:42.768Z,100522.13
2018-11-28T01:22:46.249Z,100512.88
2018-11-28T01:25:49.546Z,100511.16
2018-11-28T01:28:52.849Z,100512.00
2018-11-28T01:31:56.169Z,100502.48
2018-11-28T01:34:59.445Z,100506.18
2018-11-28T01:38:02.760Z,100506.25
2018-11-28T01:41:06.156Z,100500.56
2018-11-28T01:44:09.482Z,100495.55
2018-11-28T01:47:12.768Z,100501.48
2018-11-28T01:50:17.571Z,100495.52
2018-11-28T01:53:20.909Z,100495.31
2018-11-28T01:56:24.177Z,100483.59
2018-11-28T01:59:27.470Z,100495.90
2018-11-28T02:02:30.809Z,100496.02
2018-11-28T02:05:34.231Z,100500.24
2018-11-28T02:08:37.663Z,100494.73
2018-11-28T02:11:41.002Z,100491.23
2018-11-28T02:14:44.337Z,100497.34
2018-11-28T02:17:47.713Z,100493.12
2018-11-28T02:20:51.053Z,100499.42
2018-11-28T02:23:54.388Z,100488.48
2018-11-28T02:26:57.702Z,100492.52
2018-11-28T02:30:01.025Z,100484.16
2018-11-28T02:33:04.353Z,100482.01
2018-11-28T02:36:07.761Z,100495.66
2018-11-28T02:39:11.045Z,100502.25
2018-11-28T02:42:14.361Z,100502.06
2018-11-28T02:45:21.050Z,100504.55
2018-11-28T02:48:24.351Z,100502.03
2018-11-28T02:51:27.770Z,100495.28
2018-11-28T02:54:31.158Z,100493.91
2018-11-28T02:57:34.485Z,100480.61
2018-11-28T03:00:37.801Z,100470.00
2018-11-28T03:03:41.161Z,100467.20
2018-11-28T03:06:44.489Z,100465.38
2018-11-28T03:09:47.833Z,100467.97
2018-11-28T03:12:51.606Z,100459.48
2018-11-28T03:15:55.200Z,100460.76
2018-11-28T03:18:58.530Z,100460.48
2018-11-28T03:22:01.906Z,100451.49
2018-11-28T03:25:07.525Z,100450.27
2018-11-28T03:28:10.839Z,100450.39
2018-11-28T03:31:14.200Z,100457.08
2018-11-28T03:34:17.537Z,100450.16
2018-11-28T03:37:20.853Z,100446.38
2018-11-28T03:40:24.185Z,100445.23
2018-11-28T03:43:27.499Z,100442.45
2018-11-28T03:46:30.790Z,100432.88
2018-11-28T03:49:34.098Z,100433.23
2018-11-28T03:52:38.687Z,100435.02
2018-11-28T03:55:42.026Z,100442.00
2018-11-28T03:58:45.345Z,100432.34
2018-11-28T04:01:48.627Z,100428.00
2018-11-28T04:04:51.949Z,100419.75
2018-11-28T04:07:55.253Z,100409.81
2018-11-28T04:10:58.595Z,100410.10
2018-11-28T04:14:01.942Z,100401.38
2018-11-28T04:17:05.486Z,100405.72
2018-11-28T04:20:11.467Z,100396.09
2018-11-28T04:23:14.807Z,100409.64
2018-11-28T04:26:18.118Z,100419.09
2018-11-28T04:29:21.434Z,100436.97
2018-11-28T04:32:24.768Z,100433.98
2018-11-28T04:35:28.096Z,100444.81
2018-11-28T04:38:31.428Z,100442.77
2018-11-28T04:41:34.755Z,100439.19
2018-11-28T04:44:38.069Z,100434.48
2018-11-28T04:47:41.376Z,100433.68
2018-11-28T04:50:44.669Z,100430.61
2018-11-28T04:53:48.022Z,100440.33
2018-11-28T04:56:51.310Z,100435.16
2018-11-28T04:59:54.640Z,100427.31
2018-11-28T05:02:58.349Z,100423.81
2018-11-28T05:06:01.722Z,100426.86
2018-11-28T05:09:06.022Z,100425.09
2018-11-28T05:12:09.334Z,100419.81
2018-11-28T05:15:15.117Z,100412.00
2018-11-28T05:18:18.397Z,100404.20
2018-11-28T05:21:21.705Z,100410.66
2018-11-28T05:24:25.030Z,100411.52
2018-11-28T05:27:28.364Z,100415.95
2018-11-28T05:30:32.599Z,100422.97
2018-11-28T05:33:35.881Z,100419.44
2018-11-28T05:36:39.203Z,100420.03
2018-11-28T05:39:47.354Z,100418.42
2018-11-28T05:42:50.935Z,100410.44
2018-11-28T05:45:54.276Z,100405.70
2018-11-28T05:48:57.553Z,100416.16
2018-11-28T05:52:00.861Z,100418.00
2018-11-28T05:55:05.293Z,100401.80
2018-11-28T05:58:08.614Z,100404.11
2018-11-28T06:01:11.933Z,100410.47
2018-11-28T06:04:15.273Z,100423.73
2018-11-28T06:07:18.584Z,100422.05
2018-11-28T06:10:22.020Z,100419.80
2018-11-28T06:13:25.316Z,100420.61
2018-11-28T06:16:28.686Z,100422.06
2018-11-28T06:19:31.953Z,100418.14
2018-11-28T06:22:35.332Z,100400.66
2018-11-28T06:25:38.644Z,100412.91
2018-11-28T06:28:41.957Z,100416.43
2018-11-28T06:31:45.268Z,100419.85
2018-11-28T06:34:48.557Z,100419.45
2018-11-28T06:37:51.844Z,100423.37
2018-11-28T06:40:55.397Z,100420.75
2018-11-28T06:43:58.741Z,100415.59
2018-11-28T06:47:02.072Z,100413.87
2018-11-28T06:50:10.169Z,100418.28
2018-11-28T06:53:13.504Z,100419.12
2018-11-28T06:56:16.861Z,100420.00
2018-11-28T06:59:20.208Z,100429.09
2018-11-28T07:02:23.524Z,100437.36
2018-11-28T07:05:26.907Z,100436.91
2018-11-28T07:08:30.217Z,100442.14
2018-11-28T07:11:33.537Z,100451.37
2018-11-28T07:14:36.828Z,100451.41
2018-11-28T07:17:40.801Z,100455.84
2018-11-28T07:20:44.108Z,100462.48
2018-11-28T07:23:47.474Z,100468.69
2018-11-28T07:26:50.829Z,100472.09
2018-11-28T07:29:54.240Z,100472.45
2018-11-28T07:32:57.984Z,100474.28
2018-11-28T07:36:01.302Z,100475.64
2018-11-28T07:39:05.562Z,100473.83
2018-11-28T07:42:08.873Z,100478.64
2018-11-28T07:45:12.570Z,100486.10
2018-11-28T07:48:15.901Z,100479.66
2018-11-28T07:51:19.206Z,100477.73
2018-11-28T07:54:22.539Z,100473.33
2018-11-28T07:57:25.849Z,100473.95
2018-11-28T08:00:29.176Z,100476.95
2018-11-28T08:03:32.505Z,100475.66
2018-11-28T08:06:35.794Z,100484.08
2018-11-28T08:09:39.113Z,100480.87
2018-11-28T08:12:42.389Z,100474.10
2018-11-28T08:15:45.681Z,100480.46
2018-11-28T08:18:49.095Z,100476.95
2018-11-28T08:21:52.659Z,100472.16
2018-11-28T08:24:55.875Z,100475.97
2018-11-28T08:27:59.268Z,100469.36
2018-11-28T08:31:02.677Z,100467.70
2018-11-28T08:34:06.031Z,100463.75
2018-11-28T08:37:09.485Z,100459.81
2018-11-28T08:40:17.524Z,100465.92
2018-11-28T08:43:20.848Z,100461.36
2018-11-28T08:46:24.171Z,100458.78
2018-11-28T08:49:28.023Z,100464.27
2018-11-28T08:52:31.331Z,100463.58
2018-11-28T08:55:34.692Z,100461.88
2018-11-28T08:58:38.288Z,100458.83
2018-11-28T09:01:41.601Z,100468.84
2018-11-28T09:04:44.900Z,100466.72
2018-11-28T09:07:48.294Z,100452.09
2018-11-28T09:10:51.672Z,100460.05
2018-11-28T09:13:54.928Z,100464.10
2018-11-28T09:16:58.218Z,100463.69
2018-11-28T09:20:01.484Z,100467.63
2018-11-28T09:23:06.135Z,100460.97
2018-11-28T09:26:13.972Z,100463.02
2018-11-28T09:29:17.326Z,100451.73
2018-11-28T09:32:20.617Z,100453.92
2018-11-28T09:35:23.939Z,100461.63
2018-11-28T09:38:27.268Z,100460.34
2018-11-28T09:41:30.540Z,100470.09
2018-11-28T09:44:33.792Z,100469.25
2018-11-28T09:47:37.108Z,100456.44
2018-11-28T09:50:40.433Z,100470.13
2018-11-28T09:53:46.610Z,100461.03
2018-11-28T09:56:49.908Z,100453.47
2018-11-28T09:59:53.660Z,100450.91
2018-11-28T10:03:00.842Z,100459.17
2018-11-28T10:06:04.446Z,100453.52
2018-11-28T10:09:08.764Z,100457.13
2018-11-28T10:12:12.045Z,100457.58
2018-11-28T10:15:20.112Z,100448.34
2018-11-28T10:18:23.389Z,100450.08
2018-11-28T10:21:26.716Z,100442.25
2018-11-28T10:24:30.016Z,100426.58
2018-11-28T10:27:33.417Z,100426.97
2018-11-28T10:30:38.093Z,100420.52
2018-11-28T10:33:41.369Z,100430.03
2018-11-28T10:36:44.665Z,100425.28
2018-11-28T10:39:48.003Z,100422.70
2018-11-28T10:42:54.929Z,100422.25
2018-11-28T10:45:58.232Z,100420.98
2018-11-28T10:49:01.508Z,100409.53
2018-11-28T10:52:05.309Z,100414.87
2018-11-28T10:55:14.356Z,100407.05
2018-11-28T10:58:17.653Z,100410.50
2018-11-28T11:01:23.032Z,100394.73
2018-11-28T11:04:30.824Z,100401.84
2018-11-28T11:07:39.842Z,100407.84
2018-11-28T11:10:48.785Z,100403.97
2018-11-28T11:13:58.219Z,100408.77
2018-11-28T11:17:01.528Z,100397.41
2018-11-28T11:20:05.529Z,100410.17
2018-11-28T11:23:09.199Z,100415.86
2018-11-28T11:26:12.513Z,100401.78
2018-11-28T11:29:15.837Z,100406.24
2018-11-28T11:32:19.163Z,100413.25
2018-11-28T11:35:22.473Z,100401.00
2018-11-28T11:38:25.805Z,100398.77
2018-11-28T11:41:29.096Z,100403.20
2018-11-28T11:44:32.412Z,100400.13
2018-11-28T11:47:35.717Z,100382.61
2018-11-28T11:50:39.019Z,100380.40
2018-11-28T11:53:42.321Z,100376.22
2018-11-28T11:56:45.645Z,100373.84
2018-11-28T11:59:48.950Z,100378.23
2018-11-28T12:03:01.129Z,100380.83
2018-11-28T12:06:04.541Z,100379.52
2018-11-28T12:09:09.134Z,100376.89
2018-11-28T12:12:12.440Z,100380.39
2018-11-28T12:15:16.701Z,100381.72
2018-11-28T12:18:20.096Z,100379.09
2018-11-28T12:21:23.381Z,100376.88
2018-11-28T12:24:26.716Z,100360.91
2018-11-28T12:27:29.996Z,100360.59
2018-11-28T12:30:33.437Z,100360.25
2018-11-28T12:33:36.778Z,100360.66
2018-11-28T12:36:40.079Z,100359.33
2018-11-28T12:39:43.357Z,100344.94
2018-11-28T12:42:49.285Z,100352.80
2018-11-28T12:45:52.697Z,100357.19
2018-11-28T12:48:56.003Z,100348.39
2018-11-28T12:51:59.342Z,100346.69
2018-11-28T12:55:02.648Z,100353.70
2018-11-28T12:58:11.101Z,100338.34
2018-11-28T13:01:14.481Z,100338.78
2018-11-28T13:04:17.820Z,100336.27
2018-11-28T13:07:21.159Z,100345.73
2018-11-28T13:10:30.204Z,100338.27
2018-11-28T13:13:33.465Z,100346.98
2018-11-28T13:16:36.744Z,100349.66
2018-11-28T13:19:40.027Z,100341.81
2018-11-28T13:22:43.936Z,100347.91
2018-11-28T13:25:47.217Z,100340.88
2018-11-28T13:28:50.516Z,100342.66
2018-11-28T13:31:53.876Z,100343.57
2018-11-28T13:34:57.184Z,100340.41
2018-11-28T13:38:11.352Z,100342.23
2018-11-28T13:41:14.785Z,100336.95
2018-11-28T13:44:18.060Z,100323.45
2018-11-28T13:47:21.363Z,100315.98
2018-11-28T13:50:24.651Z,100309.86
2018-11-28T13:53:28.000Z,100301.92
2018-11-28T13:56:58.222Z,100295.34
2018-11-28T13:59:34.931Z,100295.31
2018-11-28T14:02:38.292Z,100290.56
2018-11-28T14:05:41.610Z,100281.83
2018-11-28T14:08:44.959Z,100275.19
2018-11-28T14:11:48.241Z,100288.77
2018-11-28T14:14:51.545Z,100283.55
2018-11-28T14:17:57.054Z,100290.55
2018-11-28T14:21:00.371Z,100289.67
2018-11-28T14:24:03.756Z,100299.70
2018-11-28T14:27:07.033Z,100289.18
2018-11-28T14:30:12.864Z,100296.65
2018-11-28T14:33:16.205Z,100302.88
2018-11-28T14:36:19.533Z,100286.20
2018-11-28T14:39:22.860Z,100292.34
2018-11-28T14:42:26.160Z,100290.57
2018-11-28T14:45:30.421Z,100286.16
2018-11-28T14:48:35.030Z,100285.31
2018-11-28T14:51:38.399Z,100278.32
2018-11-28T14:54:41.676Z,100279.22
2018-11-28T14:57:45.001Z,100280.89
2018-11-28T15:00:48.351Z,100279.12
2018-11-28T15:03:51.665Z,100278.13
2018-11-28T15:06:58.254Z,100271.61
2018-11-28T15:10:01.624Z,100278.27
2018-11-28T15:13:04.973Z,100273.92
2018-11-28T15:16:08.381Z,100273.88
2018-11-28T15:19:11.783Z,100262.08
2018-11-28T15:22:15.085Z,100268.27
2018-11-28T15:25:18.404Z,100267.76
2018-11-28T15:28:21.766Z,100255.93
2018-11-28T15:31:25.086Z,100250.77
2018-11-28T15:34:28.427Z,100254.23
2018-11-28T15:37:31.769Z,100250.34
2018-11-28T15:40:35.106Z,100251.16
2018-11-28T15:43:38.470Z,100245.50
2018-11-28T15:46:41.752Z,100257.34
2018-11-28T15:49:45.052Z,100252.03
2018-11-28T15:52:48.356Z,100248.12
2018-11-28T15:55:51.691Z,100233.66
2018-11-28T15:58:54.997Z,100233.64
2018-11-28T16:01:58.360Z,100238.89
2018-11-28T16:05:01.646Z,100247.20
2018-11-28T16:08:05.187Z,100241.05
2018-11-28T16:11:12.028Z,100226.09
2018-11-28T16:14:15.329Z,100224.84
2018-11-28T16:17:18.629Z,100225.73
2018-11-28T16:20:21.928Z,100249.41
2018-11-28T16:23:25.239Z,100229.62
2018-11-28T16:26:28.585Z,100254.63
2018-11-28T16:29:31.946Z,100236.71
2018-11-28T16:32:35.309Z,100226.53
2018-11-28T16:35:38.740Z,100233.16
2018-11-28T16:38:43.362Z,100234.08
2018-11-28T16:41:46.632Z,100236.23
2018-11-28T16:44:49.933Z,100242.38
2018-11-28T16:47:53.260Z,100230.94
2018-11-28T16:50:56.542Z,100231.00
2018-11-28T16:53:59.836Z,100230.61
2018-11-28T16:57:03.152Z,100234.58
2018-11-28T17:00:12.342Z,100247.28
2018-11-28T17:03:15.616Z,100253.42
2018-11-28T17:06:18.924Z,100257.36
2018-11-28T17:09:22.269Z,100250.81
2018-11-28T17:12:25.538Z,100247.75
2018-11-28T17:15:28.829Z,100248.62
2018-11-28T17:18:35.145Z,100246.88
2018-11-28T17:21:38.474Z,100248.23
2018-11-28T17:24:41.781Z,100253.45
2018-11-28T17:27:45.172Z,100242.50
2018-11-28T17:30:48.547Z,100249.53
2018-11-28T17:33:51.826Z,100260.42
2018-11-28T17:36:55.136Z,100239.91
2018-11-28T17:39:58.457Z,100238.55
2018-11-28T17:43:01.769Z,100242.97
2018-11-28T17:46:05.437Z,100246.03
2018-11-28T17:49:08.743Z,100242.09
2018-11-28T17:52:12.098Z,100228.92
2018-11-28T17:55:16.981Z,100232.00
2018-11-28T17:58:20.290Z,100242.48
2018-11-28T18:01:23.569Z,100242.48
2018-11-28T18:04:29.997Z,100233.77
2018-11-28T18:07:30.226Z,100231.15
2018-11-28T18:10:33.539Z,100233.30
2018-11-28T18:13:39.491Z,100232.87
2018-11-28T18:16:40.324Z,100239.45
2018-11-28T18:19:43.622Z,100226.73
2018-11-28T18:22:46.948Z,100207.52
2018-11-28T18:25:50.442Z,100204.87
2018-11-28T18:28:54.256Z,100200.52
2018-11-28T18:31:57.565Z,100197.88
2018-11-28T18:35:00.885Z,100195.27
2018-11-28T18:38:04.305Z,100187.34
2018-11-28T18:41:07.637Z,100191.33
2018-11-28T18:44:10.921Z,100193.95
2018-11-28T18:47:14.223Z,100183.00
2018-11-28T18:50:17.637Z,100204.89
2018-11-28T18:53:20.945Z,100211.02
2018-11-28T18:56:24.230Z,100209.23
2018-11-28T18:59:27.531Z,100173.80
2018-11-28T19:02:30.813Z,100177.29
2018-11-28T19:05:34.086Z,100180.78
2018-11-28T19:08:37.384Z,100188.67
2018-11-28T19:11:41.410Z,100183.41
2018-11-28T19:14:44.831Z,100193.91
2018-11-28T19:17:48.669Z,100190.36
2018-11-28T19:20:51.977Z,100189.52
2018-11-28T19:23:55.289Z,100197.84
2018-11-28T19:26:58.561Z,100198.28
2018-11-28T19:30:01.911Z,100210.96
2018-11-28T19:37:04.881Z,100193.01
2018-11-28T19:40:12.722Z,100178.55
2018-11-28T19:43:16.049Z,100185.16
2018-11-28T19:46:19.344Z,100186.47
2018-11-28T19:49:22.672Z,100177.67
2018-11-28T19:52:25.933Z,100164.09
2018-11-28T19:55:29.243Z,100157.55
2018-11-28T19:58:32.558Z,100158.01
2018-11-28T20:01:35.844Z,100150.11
2018-11-28T20:04:39.145Z,100160.16
2018-11-28T20:07:44.629Z,100149.23
2018-11-28T20:10:47.933Z,100143.06
2018-11-28T20:13:51.265Z,100145.67
2018-11-28T20:16:54.589Z,100134.28
2018-11-28T20:19:57.876Z,100175.03
2018-11-28T20:23:01.162Z,100153.09
2018-11-28T20:26:04.769Z,100158.37
2018-11-28T20:29:08.072Z,100171.07
2018-11-28T20:32:11.471Z,100162.75
2018-11-28T20:35:14.885Z,100176.28
2018-11-28T20:38:35.635Z,100181.56
2018-11-28T20:41:39.505Z,100189.03
2018-11-28T20:44:42.845Z,100181.52
2018-11-28T20:47:46.280Z,100175.38
2018-11-28T20:50:50.610Z,100185.50
2018-11-28T20:53:53.904Z,100179.39
2018-11-28T20:56:57.208Z,100172.75
2018-11-28T21:00:00.591Z,100168.81
2018-11-28T21:03:03.992Z,100159.20
2018-11-28T21:06:07.312Z,100151.29
2018-11-28T21:09:10.864Z,100162.25
2018-11-28T21:12:14.160Z,100149.10
2018-11-28T21:15:17.588Z,100155.66
2018-11-28T21:18:20.866Z,100158.30
2018-11-28T21:21:27.439Z,100149.45
2018-11-28T21:24:27.492Z,100151.27
2018-11-28T21:27:30.757Z,100157.80
2018-11-28T21:30:34.109Z,100170.95
2018-11-28T21:33:37.381Z,100163.91
2018-11-28T21:36:40.663Z,100168.30
2018-11-28T21:39:55.992Z,100164.73
2018-11-28T21:42:59.288Z,100161.31
2018-11-28T21:46:02.636Z,100146.83
2018-11-28T21:49:05.938Z,100156.44
2018-11-28T21:52:09.222Z,100145.52
2018-11-28T21:55:17.086Z,100139.38
2018-11-28T21:58:20.392Z,100135.87
2018-11-28T22:01:23.664Z,100130.58
2018-11-28T22:04:26.987Z,100138.84
2018-11-28T22:07:30.258Z,100124.45
2018-11-28T22:10:33.615Z,100131.39
2018-11-28T22:13:36.933Z,100122.25
2018-11-28T22:16:40.224Z,100130.91
2018-11-28T22:19:43.521Z,100132.73
2018-11-28T22:22:46.902Z,100133.58
2018-11-28T22:25:50.207Z,100132.70
2018-11-28T22:28:53.497Z,100129.67
2018-11-28T22:31:56.816Z,100136.25
2018-11-28T22:35:00.106Z,100131.75
2018-11-28T22:38:03.372Z,100122.22
2018-11-28T22:41:06.693Z,100126.06
2018-11-28T22:44:09.974Z,100122.52
2018-11-28T22:47:13.295Z,100113.34
2018-11-28T22:50:16.564Z,100114.18
2018-11-28T22:53:19.892Z,100112.86
2018-11-28T22:56:23.176Z,100115.86
2018-11-28T22:59:26.481Z,100120.80
2018-11-28T23:03:01.023Z,100118.13
2018-11-28T23:06:04.508Z,100108.84
2018-11-28T23:09:08.479Z,100109.00
2018-11-28T23:12:11.855Z,100095.38
2018-11-28T23:15:15.179Z,100093.50
2018-11-28T23:18:18.573Z,100091.73
2018-11-28T23:21:21.952Z,100093.62
2018-11-28T23:24:25.225Z,100076.08
2018-11-28T23:27:28.540Z,100073.77
2018-11-28T23:30:31.889Z,100073.84
2018-11-28T23:33:35.183Z,100069.38
2018-11-28T23:36:38.449Z,100080.82
2018-11-28T23:39:41.784Z,100083.89
2018-11-28T23:42:45.116Z,100087.78
2018-11-28T23:45:48.438Z,100072.83
2018-11-28T23:48:51.772Z,100057.09
2018-11-28T23:51:55.068Z,100049.69
2018-11-28T23:54:58.349Z,100042.14
2018-11-28T23:58:01.664Z,100033.36
